Archival Weather

Half Moon Bay

Half Moon Bay, California (KHAF)

Report from: Saturday, September 30, 2023 11:35 AM PDT
Current time: Tuesday, July 16, 2024 2:48 AM PDT

Current weather – Weather history – Daily summaries
Weather forecast

Present weatherMist
Temperature15.0°C (59.0°F)
Dew point13.0°C (55.4°F)
Winds 11 kts (5.7 m/s, 12.7 mph) Northwest (320°)
Visibility3 mi. (4.8 km)
Clouds Few clouds 1,200 ft. (366 m)
Scattered clouds 1,700 ft. (518 m)
Altimeter29.83 in.Hg (1010 mB)
Relative humidity88 %
Density altitude313 ft. (96 m)
Remarks Fully automated report
Automated weather observing station with precipitation discriminator
Flight conditions Marginal Visual Meteorological Conditions
Raw dataKHAF 301835Z AUTO 32011KT 3SM BR FEW012 SCT017 15/13 A2983 RMK AO2
An error has occurred. This application may no longer respond until reloaded. Reload 🗙